Time;durP1;ratioP1;P1;durP2;ratioP2;P2;SDS_P1;SDS_P2;PMS_P1;PMS_P2;Temp;Humidity;BMP_temperature;BMP_pressure;BME280_temperature;BME280_humidity;BME280_pressure;Samples;Min_cycle;Max_cycle;Signal;HPM_P1;HPM_P2
2023/02/02 00:01:19;;;;;;;;;;;19.00;51.70;;;;;;7673459;23;19911;-69
2023/02/02 00:04:21;;;;;;;;;;;19.00;51.80;;;;;;7674652;23;19908;-69
2023/02/02 00:07:22;;;;;;;;;;;19.00;51.70;;;;;;7674875;23;19912;-70
2023/02/02 00:10:22;;;;;;;;;;;19.00;51.80;;;;;;7672983;23;19908;-70
2023/02/02 00:13:23;;;;;;;;;;;19.00;51.70;;;;;;7675001;23;19908;-69
2023/02/02 00:16:29;;;;;;;;;;;19.00;51.80;;;;;;7674395;23;19908;-70
2023/02/02 00:19:31;;;;;;;;;;;19.00;51.70;;;;;;7674972;23;19958;-69
2023/02/02 00:22:31;;;;;;;;;;;19.00;51.80;;;;;;7673995;23;19908;-69
2023/02/02 00:25:32;;;;;;;;;;;19.00;52.40;;;;;;7674357;23;19916;-69
2023/02/02 00:28:32;;;;;;;;;;;19.00;51.80;;;;;;7673193;23;19904;-70
2023/02/02 00:31:33;;;;;;;;;;;19.00;51.70;;;;;;7674255;23;19916;-69
2023/02/02 00:34:34;;;;;;;;;;;19.00;51.70;;;;;;7672913;23;19905;-69
2023/02/02 00:37:35;;;;;;;;;;;19.00;51.70;;;;;;7673011;23;19915;-69
2023/02/02 00:40:35;;;;;;;;;;;19.00;51.70;;;;;;7674712;23;19936;-69
2023/02/02 00:43:36;;;;;;;;;;;19.00;51.70;;;;;;7674267;23;19983;-70
2023/02/02 00:46:40;;;;;;;;;;;19.00;51.70;;;;;;7674011;23;20316;-70
2023/02/02 00:49:40;;;;;;;;;;;19.00;51.70;;;;;;7672948;23;19908;-69
2023/02/02 00:52:41;;;;;;;;;;;19.00;51.70;;;;;;7674096;23;19904;-69
2023/02/02 00:55:42;;;;;;;;;;;19.00;51.70;;;;;;7674002;23;19970;-70
2023/02/02 00:58:42;;;;;;;;;;;19.00;51.70;;;;;;7672561;23;20255;-69
2023/02/02 01:01:43;;;;;;;;;;;19.00;51.70;;;;;;7672906;23;19908;-69
2023/02/02 01:04:44;;;;;;;;;;;19.00;51.70;;;;;;7673551;23;19913;-69
2023/02/02 01:07:44;;;;;;;;;;;19.00;51.70;;;;;;7674123;23;19909;-69
2023/02/02 01:10:45;;;;;;;;;;;19.00;51.70;;;;;;7673958;23;19912;-69
2023/02/02 01:13:46;;;;;;;;;;;19.00;51.70;;;;;;7674328;23;19982;-69
2023/02/02 01:16:46;;;;;;;;;;;19.00;51.70;;;;;;7673650;23;19904;-69
2023/02/02 01:19:47;;;;;;;;;;;19.00;51.70;;;;;;7674256;23;19955;-69
2023/02/02 01:22:47;;;;;;;;;;;19.00;51.60;;;;;;7673662;23;20240;-69
2023/02/02 01:25:55;;;;;;;;;;;19.00;51.70;;;;;;7673702;23;19908;-69
2023/02/02 01:28:57;;;;;;;;;;;19.00;51.70;;;;;;7674357;23;19904;-70
2023/02/02 01:31:58;;;;;;;;;;;19.00;51.80;;;;;;7673700;23;19920;-70
2023/02/02 01:34:59;;;;;;;;;;;19.00;51.70;;;;;;7674000;23;19935;-70
2023/02/02 01:38:00;;;;;;;;;;;19.00;51.70;;;;;;7673387;23;19908;-69
2023/02/02 01:41:03;;;;;;;;;;;19.00;51.80;;;;;;7673734;23;19912;-70
2023/02/02 01:44:04;;;;;;;;;;;19.00;51.80;;;;;;7673658;23;19940;-69
2023/02/02 01:47:05;;;;;;;;;;;19.00;51.80;;;;;;7673938;23;19916;-69
2023/02/02 01:50:06;;;;;;;;;;;19.00;51.70;;;;;;7673895;23;19904;-69
2023/02/02 01:53:07;;;;;;;;;;;19.00;51.70;;;;;;7673670;23;20730;-70
2023/02/02 01:56:09;;;;;;;;;;;19.00;51.70;;;;;;7671712;23;19905;-69
2023/02/02 01:59:12;;;;;;;;;;;19.00;51.70;;;;;;7673545;23;19907;-70
2023/02/02 02:02:13;;;;;;;;;;;19.00;52.50;;;;;;7673597;23;19911;-69
2023/02/02 02:05:14;;;;;;;;;;;19.00;51.80;;;;;;7673742;23;19944;-69
2023/02/02 02:08:21;;;;;;;;;;;19.00;51.70;;;;;;7671879;23;19908;-69
2023/02/02 02:11:22;;;;;;;;;;;19.00;51.80;;;;;;7671768;23;19931;-70
2023/02/02 02:17:57;;;;;;;;;;;19.00;51.80;;;;;;7673233;23;20324;-70
2023/02/02 02:28:21;;;;;;;;;;;19.00;51.70;;;;;;7672869;23;20379;-69
2023/02/02 02:31:21;;;;;;;;;;;19.00;51.80;;;;;;7673436;23;19920;-69
2023/02/02 02:34:28;;;;;;;;;;;19.00;51.70;;;;;;7673343;23;20296;-69
2023/02/02 02:37:38;;;;;;;;;;;19.00;51.70;;;;;;7671705;23;19908;-69
2023/02/02 02:40:46;;;;;;;;;;;19.00;51.70;;;;;;7673360;23;20525;-69
2023/02/02 02:43:53;;;;;;;;;;;18.90;51.70;;;;;;7673124;23;20039;-69
2023/02/02 02:46:55;;;;;;;;;;;19.00;51.80;;;;;;7671311;23;19905;-70
2023/02/02 02:49:55;;;;;;;;;;;19.00;51.80;;;;;;7674317;23;19916;-70
2023/02/02 02:53:03;;;;;;;;;;;19.00;51.70;;;;;;7675609;23;19908;-70
2023/02/02 02:56:09;;;;;;;;;;;19.00;51.80;;;;;;7675447;23;20335;-69
2023/02/02 02:59:18;;;;;;;;;;;19.00;51.80;;;;;;7673903;23;19908;-69
2023/02/02 03:02:29;;;;;;;;;;;19.00;51.70;;;;;;7675463;23;19932;-70
2023/02/02 03:05:36;;;;;;;;;;;19.00;51.80;;;;;;7673603;23;19908;-69
2023/02/02 03:08:48;;;;;;;;;;;19.00;51.80;;;;;;7675437;23;19912;-69
2023/02/02 03:11:49;;;;;;;;;;;19.00;51.80;;;;;;7673879;23;20364;-69
2023/02/02 03:14:49;;;;;;;;;;;19.00;51.80;;;;;;7673815;23;19983;-69
2023/02/02 03:17:51;;;;;;;;;;;19.00;51.80;;;;;;7674902;23;20006;-69
2023/02/02 03:20:52;;;;;;;;;;;19.00;51.70;;;;;;7675730;23;20440;-69
2023/02/02 03:23:52;;;;;;;;;;;19.00;51.70;;;;;;7673423;23;19908;-70
2023/02/02 03:26:53;;;;;;;;;;;19.00;51.80;;;;;;7673653;23;20324;-70
2023/02/02 03:29:54;;;;;;;;;;;19.00;51.80;;;;;;7675272;23;19911;-69
2023/02/02 03:32:54;;;;;;;;;;;19.00;51.70;;;;;;7675034;23;20299;-70
2023/02/02 03:35:55;;;;;;;;;;;19.00;51.70;;;;;;7673310;23;20375;-69
2023/02/02 03:38:55;;;;;;;;;;;19.00;51.60;;;;;;7674732;23;20465;-69
2023/02/02 03:41:56;;;;;;;;;;;19.00;51.80;;;;;;7675139;23;19911;-69
2023/02/02 03:44:56;;;;;;;;;;;19.00;51.80;;;;;;7675025;23;20005;-69
2023/02/02 03:47:57;;;;;;;;;;;19.00;51.70;;;;;;7674919;23;19905;-69
2023/02/02 03:50:57;;;;;;;;;;;19.00;51.80;;;;;;7674889;23;20017;-69
2023/02/02 03:53:58;;;;;;;;;;;19.00;51.80;;;;;;7674934;23;19932;-69
2023/02/02 03:56:59;;;;;;;;;;;19.00;51.80;;;;;;7675044;23;19911;-70
2023/02/02 04:00:00;;;;;;;;;;;19.00;51.80;;;;;;7674596;23;19915;-69
2023/02/02 04:03:01;;;;;;;;;;;19.00;51.80;;;;;;7675041;23;19904;-69
2023/02/02 04:06:02;;;;;;;;;;;19.00;51.80;;;;;;7674320;23;20320;-70
2023/02/02 04:09:02;;;;;;;;;;;19.00;51.70;;;;;;7674859;23;19959;-69
2023/02/02 04:12:03;;;;;;;;;;;19.00;51.70;;;;;;7673030;23;19904;-69
2023/02/02 04:15:04;;;;;;;;;;;19.00;51.70;;;;;;7674903;23;19905;-69
2023/02/02 04:18:05;;;;;;;;;;;19.00;51.80;;;;;;7672898;23;20177;-69
2023/02/02 04:21:06;;;;;;;;;;;19.00;51.70;;;;;;7674660;23;19990;-69
2023/02/02 04:24:09;;;;;;;;;;;19.00;51.80;;;;;;7673159;23;20244;-69
2023/02/02 04:27:10;;;;;;;;;;;19.00;51.80;;;;;;7674683;23;19905;-69
2023/02/02 04:30:10;;;;;;;;;;;19.00;51.70;;;;;;7672846;23;19951;-69
2023/02/02 04:33:11;;;;;;;;;;;19.00;51.70;;;;;;7674376;23;19954;-70
2023/02/02 04:36:11;;;;;;;;;;;19.00;51.80;;;;;;7674353;23;19904;-70
2023/02/02 04:39:12;;;;;;;;;;;19.00;51.80;;;;;;7674163;23;19900;-69
2023/02/02 04:42:12;;;;;;;;;;;19.00;51.70;;;;;;7672783;23;19911;-69
2023/02/02 04:45:13;;;;;;;;;;;19.00;51.80;;;;;;7674456;23;19995;-70
2023/02/02 04:48:14;;;;;;;;;;;19.00;51.80;;;;;;7672609;23;19904;-70
2023/02/02 04:51:14;;;;;;;;;;;19.00;51.70;;;;;;7672336;23;19916;-70
2023/02/02 04:54:15;;;;;;;;;;;19.00;51.80;;;;;;7674010;23;19935;-69
2023/02/02 04:57:16;;;;;;;;;;;19.00;51.70;;;;;;7674278;23;20003;-69
2023/02/02 05:00:38;;;;;;;;;;;19.00;51.80;;;;;;7672646;23;19904;-69
2023/02/02 05:03:39;;;;;;;;;;;19.00;51.70;;;;;;7672158;23;19988;-70
2023/02/02 05:06:40;;;;;;;;;;;19.00;51.70;;;;;;7673457;23;19909;-70
2023/02/02 05:09:40;;;;;;;;;;;19.00;51.80;;;;;;7672257;23;19984;-69
2023/02/02 05:12:41;;;;;;;;;;;19.00;51.80;;;;;;7673638;23;19904;-69
2023/02/02 05:15:41;;;;;;;;;;;19.00;51.80;;;;;;7673861;23;19909;-69
2023/02/02 05:18:42;;;;;;;;;;;19.00;51.80;;;;;;7673687;23;19936;-69
2023/02/02 05:21:47;;;;;;;;;;;19.00;51.80;;;;;;7671978;23;19939;-69
2023/02/02 05:24:48;;;;;;;;;;;19.00;51.80;;;;;;7673553;23;19908;-69
2023/02/02 05:27:49;;;;;;;;;;;19.00;51.80;;;;;;7672316;23;19911;-69
2023/02/02 05:30:49;;;;;;;;;;;19.00;51.80;;;;;;7673608;23;19915;-69
2023/02/02 05:33:50;;;;;;;;;;;19.00;51.70;;;;;;7671955;23;19920;-69
2023/02/02 05:36:51;;;;;;;;;;;19.00;51.70;;;;;;7673607;23;19970;-69
2023/02/02 05:39:52;;;;;;;;;;;19.00;51.70;;;;;;7673450;23;19908;-69
2023/02/02 05:42:53;;;;;;;;;;;19.00;51.70;;;;;;7673713;23;19979;-69
2023/02/02 05:45:53;;;;;;;;;;;19.00;51.80;;;;;;7671553;23;19918;-69
2023/02/02 05:48:55;;;;;;;;;;;19.00;51.80;;;;;;7673742;23;19908;-70
2023/02/02 05:51:57;;;;;;;;;;;19.00;51.80;;;;;;7673647;23;20422;-69
2023/02/02 05:54:57;;;;;;;;;;;19.00;51.70;;;;;;7671939;23;19905;-69
2023/02/02 05:57:58;;;;;;;;;;;19.00;51.70;;;;;;7673288;23;19966;-69
2023/02/02 06:00:58;;;;;;;;;;;19.00;51.70;;;;;;7672949;23;19919;-69
2023/02/02 06:03:59;;;;;;;;;;;19.00;51.70;;;;;;7673122;23;19983;-69
2023/02/02 06:06:59;;;;;;;;;;;19.00;51.70;;;;;;7673190;23;19991;-69
2023/02/02 06:10:00;;;;;;;;;;;19.00;51.70;;;;;;7671849;23;19908;-69
2023/02/02 06:13:01;;;;;;;;;;;19.00;51.70;;;;;;7673069;23;19908;-69
2023/02/02 06:16:02;;;;;;;;;;;19.00;52.40;;;;;;7673164;23;19915;-70
2023/02/02 06:19:03;;;;;;;;;;;19.00;51.70;;;;;;7673112;23;19904;-69
2023/02/02 06:22:04;;;;;;;;;;;19.00;51.60;;;;;;7671820;23;19911;-69
2023/02/02 06:25:06;;;;;;;;;;;19.00;51.70;;;;;;7675083;23;19924;-69
2023/02/02 06:28:07;;;;;;;;;;;19.00;51.60;;;;;;7675866;23;19916;-69
2023/02/02 06:31:09;;;;;;;;;;;19.00;51.70;;;;;;7675698;23;19931;-70
2023/02/02 06:34:13;;;;;;;;;;;19.00;51.70;;;;;;7667561;23;19987;-70
2023/02/02 06:37:13;;;;;;;;;;;19.00;51.60;;;;;;7674950;23;20279;-70
2023/02/02 06:40:14;;;;;;;;;;;19.00;51.60;;;;;;7675219;23;19904;-71
2023/02/02 06:43:18;;;;;;;;;;;19.00;51.70;;;;;;7674448;23;20313;-70
2023/02/02 06:46:18;;;;;;;;;;;19.00;51.70;;;;;;7674480;23;19964;-70
2023/02/02 06:49:19;;;;;;;;;;;19.00;51.70;;;;;;7674810;23;20027;-70
2023/02/02 06:52:19;;;;;;;;;;;19.00;51.70;;;;;;7675376;23;19904;-70
2023/02/02 06:55:20;;;;;;;;;;;19.00;51.70;;;;;;7675009;23;19904;-70
2023/02/02 06:58:21;;;;;;;;;;;19.00;51.70;;;;;;7673453;23;19904;-70
2023/02/02 07:01:21;;;;;;;;;;;19.00;51.80;;;;;;7678378;23;19904;-70
2023/02/02 07:04:22;;;;;;;;;;;19.00;51.80;;;;;;7678247;23;19966;-71
2023/02/02 07:07:23;;;;;;;;;;;19.00;51.80;;;;;;7677307;23;19905;-70
2023/02/02 07:10:23;;;;;;;;;;;19.00;51.80;;;;;;7678078;23;19904;-70
2023/02/02 07:13:24;;;;;;;;;;;19.00;51.90;;;;;;7677838;23;19919;-69
2023/02/02 07:16:24;;;;;;;;;;;19.00;51.80;;;;;;7675811;23;19904;-70
2023/02/02 07:19:25;;;;;;;;;;;19.00;51.90;;;;;;7675607;23;19904;-70
2023/02/02 07:22:25;;;;;;;;;;;19.00;51.90;;;;;;7677485;23;19912;-69
2023/02/02 07:25:26;;;;;;;;;;;19.00;51.90;;;;;;7677238;23;20239;-70
2023/02/02 07:28:26;;;;;;;;;;;19.00;51.90;;;;;;7675545;23;20316;-69
2023/02/02 07:31:28;;;;;;;;;;;19.10;52.30;;;;;;7650508;23;19913;-70
2023/02/02 07:34:28;;;;;;;;;;;19.10;52.30;;;;;;7676874;23;19914;-71
2023/02/02 07:37:29;;;;;;;;;;;19.10;52.20;;;;;;7675266;23;19908;-70
2023/02/02 07:40:29;;;;;;;;;;;19.10;52.20;;;;;;7675453;23;19940;-70
2023/02/02 07:43:30;;;;;;;;;;;19.10;52.20;;;;;;7677040;23;19910;-69
2023/02/02 07:46:31;;;;;;;;;;;19.10;53.10;;;;;;7674881;23;19915;-69
2023/02/02 07:49:31;;;;;;;;;;;19.20;53.00;;;;;;7676547;23;20295;-69
2023/02/02 07:52:32;;;;;;;;;;;19.30;53.60;;;;;;7676392;23;19912;-68
2023/02/02 07:55:32;;;;;;;;;;;19.30;53.10;;;;;;7676698;23;19908;-69
2023/02/02 07:58:33;;;;;;;;;;;19.40;52.90;;;;;;7676947;23;19955;-68
2023/02/02 08:01:33;;;;;;;;;;;19.40;53.00;;;;;;7676649;23;19963;-68
2023/02/02 08:04:34;;;;;;;;;;;19.40;53.10;;;;;;7675177;23;19915;-68
2023/02/02 08:07:34;;;;;;;;;;;19.30;53.00;;;;;;7676850;23;19915;-69
2023/02/02 08:10:35;;;;;;;;;;;19.30;52.90;;;;;;7676560;23;19909;-68
2023/02/02 08:13:36;;;;;;;;;;;19.30;52.80;;;;;;7677009;23;20246;-68
2023/02/02 08:16:36;;;;;;;;;;;19.30;52.70;;;;;;7676086;23;19935;-68
2023/02/02 08:19:37;;;;;;;;;;;19.20;53.00;;;;;;7676675;23;20221;-68
2023/02/02 08:22:38;;;;;;;;;;;19.20;52.90;;;;;;7674844;23;19904;-68
2023/02/02 08:25:39;;;;;;;;;;;19.30;52.80;;;;;;7674451;23;19987;-68
2023/02/02 08:28:40;;;;;;;;;;;19.30;52.70;;;;;;7676284;23;20350;-69
2023/02/02 08:31:41;;;;;;;;;;;19.30;52.60;;;;;;7675899;23;19916;-69
2023/02/02 08:34:42;;;;;;;;;;;19.20;52.60;;;;;;7676338;23;19908;-68
2023/02/02 08:37:42;;;;;;;;;;;19.30;52.60;;;;;;7675529;23;19943;-68
2023/02/02 08:40:43;;;;;;;;;;;19.20;52.60;;;;;;7674336;23;20094;-69
2023/02/02 08:43:43;;;;;;;;;;;19.20;52.70;;;;;;7675637;23;19970;-68
2023/02/02 08:46:44;;;;;;;;;;;19.20;52.70;;;;;;7675481;23;19912;-68
2023/02/02 08:49:45;;;;;;;;;;;19.20;52.70;;;;;;7675384;23;19908;-68
2023/02/02 08:52:46;;;;;;;;;;;19.20;52.70;;;;;;7676030;23;19904;-68
2023/02/02 08:55:47;;;;;;;;;;;19.20;52.70;;;;;;7676461;23;19982;-68
2023/02/02 08:58:51;;;;;;;;;;;19.20;52.70;;;;;;7675643;23;19908;-68
2023/02/02 09:01:52;;;;;;;;;;;19.10;52.60;;;;;;7674563;23;19908;-67
2023/02/02 09:04:53;;;;;;;;;;;19.10;52.60;;;;;;7676449;23;19919;-69
2023/02/02 09:07:53;;;;;;;;;;;19.10;52.10;;;;;;7676037;23;19908;-69
2023/02/02 09:10:54;;;;;;;;;;;19.10;51.50;;;;;;7676021;23;19908;-69
2023/02/02 09:13:55;;;;;;;;;;;19.10;51.30;;;;;;7675779;23;19908;-69
2023/02/02 09:16:57;;;;;;;;;;;19.10;51.70;;;;;;7675244;23;20393;-68
2023/02/02 09:19:57;;;;;;;;;;;19.10;51.80;;;;;;7673908;23;19932;-69
2023/02/02 09:22:58;;;;;;;;;;;19.10;51.80;;;;;;7674126;23;19983;-69
2023/02/02 09:26:09;;;;;;;;;;;19.10;51.90;;;;;;7675864;23;19920;-69
2023/02/02 09:29:11;;;;;;;;;;;19.10;52.00;;;;;;7674061;23;19911;-69
2023/02/02 09:32:11;;;;;;;;;;;19.10;52.10;;;;;;7676170;23;19986;-69
2023/02/02 09:35:12;;;;;;;;;;;19.10;52.10;;;;;;7675506;23;19904;-69
2023/02/02 09:38:12;;;;;;;;;;;19.10;52.10;;;;;;7672602;23;19911;-68
2023/02/02 09:41:22;;;;;;;;;;;19.20;52.30;;;;;;7675021;23;19905;-69
2023/02/02 09:44:25;;;;;;;;;;;19.10;52.20;;;;;;7675031;23;19967;-69
2023/02/02 09:47:26;;;;;;;;;;;19.10;52.20;;;;;;7674263;23;19914;-69
2023/02/02 09:50:33;;;;;;;;;;;19.10;52.20;;;;;;7666565;23;19908;-69
2023/02/02 09:53:46;;;;;;;;;;;19.10;52.20;;;;;;7674213;23;19983;-69
2023/02/02 09:56:50;;;;;;;;;;;19.10;52.20;;;;;;7675746;23;19911;-69
2023/02/02 09:59:52;;;;;;;;;;;19.10;52.20;;;;;;7674402;23;20047;-72
2023/02/02 10:02:56;;;;;;;;;;;19.10;52.20;;;;;;7672504;23;19958;-70
2023/02/02 10:06:01;;;;;;;;;;;19.10;52.20;;;;;;7674134;23;19908;-69
2023/02/02 10:09:17;;;;;;;;;;;19.10;52.10;;;;;;7673675;23;20007;-70
2023/02/02 10:12:36;;;;;;;;;;;19.10;52.20;;;;;;7673848;23;19936;-69
2023/02/02 10:15:43;;;;;;;;;;;19.10;52.10;;;;;;7673873;23;20455;-69
2023/02/02 10:18:53;;;;;;;;;;;19.10;52.10;;;;;;7671194;23;19940;-69
2023/02/02 10:21:53;;;;;;;;;;;19.10;52.20;;;;;;7674323;23;20038;-69
2023/02/02 10:24:56;;;;;;;;;;;19.10;52.10;;;;;;7673237;23;19909;-69
2023/02/02 10:28:19;;;;;;;;;;;19.10;52.20;;;;;;7671672;23;20248;-69
2023/02/02 10:31:29;;;;;;;;;;;19.10;52.20;;;;;;7666254;23;19919;-69
2023/02/02 10:34:29;;;;;;;;;;;19.10;52.20;;;;;;7674403;23;19905;-69
2023/02/02 10:37:29;;;;;;;;;;;19.10;52.10;;;;;;7674187;23;19990;-70
2023/02/02 10:41:02;;;;;;;;;;;19.10;52.10;;;;;;7673845;23;19947;-69
2023/02/02 10:44:12;;;;;;;;;;;19.10;52.20;;;;;;7639944;23;19931;-69
2023/02/02 10:47:15;;;;;;;;;;;19.10;52.10;;;;;;7672538;23;19984;-69
2023/02/02 10:50:18;;;;;;;;;;;19.10;52.10;;;;;;7673488;23;19915;-69
2023/02/02 10:53:19;;;;;;;;;;;19.10;52.10;;;;;;7674255;23;19904;-69
2023/02/02 10:56:28;;;;;;;;;;;19.10;52.10;;;;;;7666812;23;19958;-70
2023/02/02 10:59:35;;;;;;;;;;;19.10;52.10;;;;;;7672688;23;20290;-71
2023/02/02 11:02:35;;;;;;;;;;;19.10;52.10;;;;;;7667359;23;19917;-71
2023/02/02 11:08:58;;;;;;;;;;;19.10;52.10;;;;;;7673082;23;19986;-69
2023/02/02 11:12:17;;;;;;;;;;;19.10;52.10;;;;;;7675858;23;19915;-70
2023/02/02 11:15:26;;;;;;;;;;;19.10;52.10;;;;;;7675974;23;19908;-70
2023/02/02 11:18:27;;;;;;;;;;;19.10;52.10;;;;;;7675508;23;20220;-71
2023/02/02 11:21:30;;;;;;;;;;;19.10;52.10;;;;;;7674351;23;19908;-69
2023/02/02 11:24:37;;;;;;;;;;;19.10;52.10;;;;;;7676250;23;19963;-70
2023/02/02 11:27:39;;;;;;;;;;;19.10;52.20;;;;;;7672823;23;19987;-70
2023/02/02 11:30:40;;;;;;;;;;;19.10;52.10;;;;;;7667651;23;20213;-71
2023/02/02 11:33:41;;;;;;;;;;;19.10;52.10;;;;;;7675634;23;19964;-70
2023/02/02 11:36:56;;;;;;;;;;;19.10;52.10;;;;;;7676075;23;19987;-69
2023/02/02 11:40:16;;;;;;;;;;;19.10;52.20;;;;;;7674711;23;19908;-69
2023/02/02 11:43:18;;;;;;;;;;;19.10;52.20;;;;;;7675640;23;19911;-69
2023/02/02 11:46:27;;;;;;;;;;;19.10;52.00;;;;;;7676333;23;20239;-69
2023/02/02 11:49:37;;;;;;;;;;;19.00;50.70;;;;;;7674985;23;19904;-69
2023/02/02 11:52:39;;;;;;;;;;;19.00;50.80;;;;;;7674638;23;19951;-69
2023/02/02 11:55:42;;;;;;;;;;;19.10;49.60;;;;;;7674628;23;19951;-69
2023/02/02 11:58:43;;;;;;;;;;;19.10;50.20;;;;;;7673546;23;19959;-69
2023/02/02 12:01:44;;;;;;;;;;;19.10;50.80;;;;;;7674554;23;20344;-70
2023/02/02 12:04:45;;;;;;;;;;;19.10;51.20;;;;;;7675297;23;20458;-70
2023/02/02 12:07:47;;;;;;;;;;;19.10;51.20;;;;;;7675154;23;19936;-69
2023/02/02 12:10:55;;;;;;;;;;;19.10;51.20;;;;;;7674922;23;19908;-69
2023/02/02 12:14:05;;;;;;;;;;;19.00;51.40;;;;;;7674795;23;19908;-73
2023/02/02 12:17:25;;;;;;;;;;;19.00;50.80;;;;;;7675336;23;20283;-69
2023/02/02 12:20:26;;;;;;;;;;;19.00;50.10;;;;;;7675884;23;19932;-69
2023/02/02 12:23:45;;;;;;;;;;;19.00;49.00;;;;;;7677068;23;19983;-70
2023/02/02 12:26:51;;;;;;;;;;;19.00;49.60;;;;;;7676961;23;19995;-70
2023/02/02 12:29:58;;;;;;;;;;;19.00;50.40;;;;;;7674202;23;19912;-70
2023/02/02 12:33:16;;;;;;;;;;;19.00;49.90;;;;;;7675216;23;19916;-70
2023/02/02 12:36:23;;;;;;;;;;;19.00;50.10;;;;;;7674644;23;19939;-69
2023/02/02 12:39:38;;;;;;;;;;;19.00;50.20;;;;;;7666419;23;19935;-70
2023/02/02 12:43:05;;;;;;;;;;;19.00;50.40;;;;;;7676500;23;19912;-69
2023/02/02 12:46:08;;;;;;;;;;;19.00;50.00;;;;;;7669571;23;19912;-70
2023/02/02 12:49:26;;;;;;;;;;;19.00;49.90;;;;;;7674849;23;20228;-69
2023/02/02 12:52:27;;;;;;;;;;;19.10;50.40;;;;;;7672900;23;19916;-67
2023/02/02 12:55:33;;;;;;;;;;;19.00;50.00;;;;;;7673453;23;19908;-68
2023/02/02 12:58:34;;;;;;;;;;;19.00;49.40;;;;;;7675027;23;19927;-69
2023/02/02 13:01:55;;;;;;;;;;;19.00;48.20;;;;;;7676469;23;20324;-70
2023/02/02 13:04:56;;;;;;;;;;;19.00;48.10;;;;;;7676437;23;20286;-70
2023/02/02 13:08:07;;;;;;;;;;;19.00;46.90;;;;;;7676618;23;19904;-70
2023/02/02 13:11:28;;;;;;;;;;;19.10;47.30;;;;;;7674609;23;19991;-70
2023/02/02 13:14:40;;;;;;;;;;;19.10;47.70;;;;;;7674818;23;20117;-69
2023/02/02 13:17:41;;;;;;;;;;;19.10;47.80;;;;;;7676571;23;20359;-70
2023/02/02 13:20:47;;;;;;;;;;;19.10;48.10;;;;;;7674497;23;19904;-70
2023/02/02 13:23:49;;;;;;;;;;;19.10;48.20;;;;;;7675323;23;20231;-70
2023/02/02 13:26:50;;;;;;;;;;;19.10;48.30;;;;;;7676568;23;20386;-70
2023/02/02 13:30:12;;;;;;;;;;;19.10;48.30;;;;;;7675611;23;19904;-69
2023/02/02 13:33:20;;;;;;;;;;;19.10;48.50;;;;;;7674768;23;20306;-70
2023/02/02 13:36:24;;;;;;;;;;;19.10;48.60;;;;;;7676393;23;19915;-70
2023/02/02 13:39:40;;;;;;;;;;;19.10;49.00;;;;;;7675906;23;20299;-70
2023/02/02 13:43:01;;;;;;;;;;;19.10;48.70;;;;;;7676588;23;19904;-70
2023/02/02 13:46:17;;;;;;;;;;;19.10;48.80;;;;;;7645298;23;19944;-70
2023/02/02 13:49:24;;;;;;;;;;;19.10;48.90;;;;;;7675811;23;19904;-68
2023/02/02 13:52:39;;;;;;;;;;;19.10;49.00;;;;;;7675946;23;19911;-70
2023/02/02 13:55:55;;;;;;;;;;;19.10;49.10;;;;;;7674239;23;19904;-69
2023/02/02 13:59:01;;;;;;;;;;;19.10;49.10;;;;;;7673697;23;19908;-70
2023/02/02 14:02:03;;;;;;;;;;;19.10;49.20;;;;;;7673921;23;19979;-70
2023/02/02 14:05:05;;;;;;;;;;;19.10;49.30;;;;;;7675130;23;19916;-70
2023/02/02 14:08:14;;;;;;;;;;;19.10;49.40;;;;;;7675272;23;19908;-70
2023/02/02 14:11:16;;;;;;;;;;;19.10;49.40;;;;;;7674123;23;19958;-70
2023/02/02 14:14:30;;;;;;;;;;;19.20;49.60;;;;;;7676026;23;19904;-69
2023/02/02 14:17:31;;;;;;;;;;;19.10;49.50;;;;;;7674517;23;19911;-70
2023/02/02 14:20:43;;;;;;;;;;;19.10;49.50;;;;;;7675274;23;19905;-70
2023/02/02 14:23:51;;;;;;;;;;;19.10;49.50;;;;;;7674388;23;19908;-70
2023/02/02 14:26:58;;;;;;;;;;;19.10;49.50;;;;;;7675868;23;19931;-70
2023/02/02 14:29:59;;;;;;;;;;;19.10;49.50;;;;;;7674944;23;20287;-69
2023/02/02 14:33:18;;;;;;;;;;;19.10;49.60;;;;;;7675521;23;19916;-69
2023/02/02 14:36:19;;;;;;;;;;;19.20;49.70;;;;;;7676012;23;19960;-69
2023/02/02 14:39:20;;;;;;;;;;;19.20;49.70;;;;;;7673881;23;19905;-70
2023/02/02 14:45:44;;;;;;;;;;;19.20;49.70;;;;;;7677590;23;19908;-70
2023/02/02 14:48:55;;;;;;;;;;;19.10;49.70;;;;;;7676027;23;19955;-70
2023/02/02 14:51:59;;;;;;;;;;;19.20;49.90;;;;;;7667586;23;20479;-68
2023/02/02 14:54:59;;;;;;;;;;;19.10;49.70;;;;;;7677348;23;20027;-69
2023/02/02 14:58:02;;;;;;;;;;;19.10;49.60;;;;;;7677038;23;19912;-70
2023/02/02 15:01:23;;;;;;;;;;;19.10;49.70;;;;;;7676280;23;20478;-69
2023/02/02 15:04:25;;;;;;;;;;;19.10;49.70;;;;;;7676864;23;19919;-69
2023/02/02 15:07:26;;;;;;;;;;;19.10;49.80;;;;;;7676769;23;19908;-69
2023/02/02 15:10:44;;;;;;;;;;;19.10;50.00;;;;;;7676583;23;20405;-68
2023/02/02 15:13:49;;;;;;;;;;;19.10;50.10;;;;;;7677866;23;19979;-69
2023/02/02 15:16:49;;;;;;;;;;;19.10;50.90;;;;;;7677503;23;20243;-69
2023/02/02 15:20:09;;;;;;;;;;;19.10;50.20;;;;;;7677141;23;19931;-68
2023/02/02 15:23:18;;;;;;;;;;;19.10;50.20;;;;;;7677702;23;19911;-69
2023/02/02 15:26:23;;;;;;;;;;;19.10;50.30;;;;;;7677377;23;19966;-71
2023/02/02 15:29:43;;;;;;;;;;;19.10;50.20;;;;;;7675364;23;19987;-70
2023/02/02 15:32:44;;;;;;;;;;;19.10;50.30;;;;;;7675778;23;20288;-70
2023/02/02 15:35:46;;;;;;;;;;;19.10;50.40;;;;;;7674673;23;20288;-71
2023/02/02 15:38:49;;;;;;;;;;;19.10;50.40;;;;;;7673811;23;19911;-70
2023/02/02 15:42:51;;;;;;;;;;;19.10;50.50;;;;;;7675668;23;19916;-71
2023/02/02 15:45:26;;;;;;;;;;;19.10;50.50;;;;;;7676153;23;19914;-71
2023/02/02 15:48:33;;;;;;;;;;;19.10;50.50;;;;;;7668813;23;19909;-71
2023/02/02 15:51:34;;;;;;;;;;;19.10;50.60;;;;;;7674278;23;19908;-72
2023/02/02 15:54:36;;;;;;;;;;;19.10;50.60;;;;;;7674233;23;19908;-70
2023/02/02 15:57:39;;;;;;;;;;;19.10;50.70;;;;;;7674075;23;19942;-70
2023/02/02 16:00:39;;;;;;;;;;;19.10;51.50;;;;;;7673592;23;19908;-71
2023/02/02 16:03:59;;;;;;;;;;;19.10;50.70;;;;;;7674528;23;19908;-71
2023/02/02 16:07:01;;;;;;;;;;;19.10;50.60;;;;;;7675999;23;20308;-70
2023/02/02 16:10:04;;;;;;;;;;;19.10;50.50;;;;;;7673729;23;20386;-70
2023/02/02 16:13:04;;;;;;;;;;;19.10;51.00;;;;;;7674013;23;19927;-69
2023/02/02 16:16:19;;;;;;;;;;;19.10;50.80;;;;;;7675987;23;19909;-70
2023/02/02 16:19:24;;;;;;;;;;;19.20;50.80;;;;;;7675403;23;19931;-70
2023/02/02 16:22:25;;;;;;;;;;;19.10;50.70;;;;;;7675162;23;20251;-70
2023/02/02 16:25:28;;;;;;;;;;;19.10;50.80;;;;;;7673825;23;19912;-69
2023/02/02 16:28:28;;;;;;;;;;;19.10;50.70;;;;;;7675742;23;20380;-69
2023/02/02 16:31:30;;;;;;;;;;;19.10;50.70;;;;;;7674790;23;19912;-70
2023/02/02 16:34:40;;;;;;;;;;;19.10;50.80;;;;;;7675667;23;19908;-70
2023/02/02 16:37:41;;;;;;;;;;;19.10;50.80;;;;;;7675237;23;19904;-70
2023/02/02 16:40:41;;;;;;;;;;;19.10;50.80;;;;;;7674478;23;19927;-70
2023/02/02 16:43:42;;;;;;;;;;;19.10;50.70;;;;;;7673550;23;19905;-70
2023/02/02 16:46:48;;;;;;;;;;;19.10;50.80;;;;;;7675557;23;19991;-70
2023/02/02 16:49:48;;;;;;;;;;;19.10;50.80;;;;;;7673646;23;19908;-70
2023/02/02 16:52:49;;;;;;;;;;;19.10;50.70;;;;;;7673211;23;19959;-70
2023/02/02 16:55:49;;;;;;;;;;;19.10;50.80;;;;;;7657343;23;20259;-71
2023/02/02 16:58:56;;;;;;;;;;;19.10;50.80;;;;;;7668292;23;19904;-70
2023/02/02 17:01:58;;;;;;;;;;;19.10;50.70;;;;;;7675059;23;19939;-71
2023/02/02 17:05:03;;;;;;;;;;;19.10;50.70;;;;;;7674608;23;19931;-68
2023/02/02 17:08:06;;;;;;;;;;;19.10;50.90;;;;;;7673392;23;20351;-70
2023/02/02 17:11:23;;;;;;;;;;;19.00;50.80;;;;;;7672497;23;19912;-70
2023/02/02 17:14:34;;;;;;;;;;;19.10;49.50;;;;;;7674838;23;19911;-70
2023/02/02 17:17:35;;;;;;;;;;;19.00;47.80;;;;;;7670199;23;19904;-70
2023/02/02 17:20:35;;;;;;;;;;;19.10;48.10;;;;;;7671600;23;19909;-70
2023/02/02 17:23:37;;;;;;;;;;;19.10;48.10;;;;;;7671229;23;19959;-70
2023/02/02 17:26:38;;;;;;;;;;;19.10;48.30;;;;;;7672651;23;19915;-70
2023/02/02 17:29:38;;;;;;;;;;;19.10;48.40;;;;;;7673831;23;19904;-68
2023/02/02 17:32:39;;;;;;;;;;;19.10;48.70;;;;;;7673511;23;19963;-69
2023/02/02 17:35:40;;;;;;;;;;;19.10;48.80;;;;;;7672519;23;19904;-68
2023/02/02 17:38:40;;;;;;;;;;;19.10;48.70;;;;;;7673392;23;19920;-68
2023/02/02 17:41:43;;;;;;;;;;;19.10;49.00;;;;;;7673877;23;19999;-68
2023/02/02 17:44:44;;;;;;;;;;;19.10;49.20;;;;;;7673558;23;20415;-68
2023/02/02 17:47:45;;;;;;;;;;;19.10;49.80;;;;;;7672916;23;19912;-68
2023/02/02 17:50:46;;;;;;;;;;;19.10;49.30;;;;;;7672635;23;19908;-67
2023/02/02 17:53:46;;;;;;;;;;;19.10;49.40;;;;;;7674193;23;19987;-66
2023/02/02 17:56:47;;;;;;;;;;;19.10;49.70;;;;;;7672279;23;19954;-67
2023/02/02 17:59:47;;;;;;;;;;;19.10;49.60;;;;;;7673116;23;19905;-66
2023/02/02 18:02:49;;;;;;;;;;;19.20;49.70;;;;;;7672523;23;19904;-67
2023/02/02 18:05:50;;;;;;;;;;;19.10;49.60;;;;;;7673574;23;20419;-67